createdAt,value
2017-09-19T00:00:31.462Z,19.50
2017-09-19T00:02:58.966Z,19.93
2017-09-19T00:05:26.465Z,19.10
2017-09-19T00:07:54.207Z,21.00
2017-09-19T00:10:22.459Z,18.27
2017-09-19T00:12:49.917Z,19.20
2017-09-19T00:15:17.406Z,17.77
2017-09-19T00:17:45.630Z,18.60
2017-09-19T00:20:13.175Z,18.03
2017-09-19T00:22:40.652Z,16.47
2017-09-19T00:25:08.288Z,16.53
2017-09-19T00:27:35.786Z,18.13
2017-09-19T00:30:03.259Z,18.70
2017-09-19T00:32:31.741Z,19.90
2017-09-19T00:35:00.002Z,18.77
2017-09-19T00:37:27.470Z,21.10
2017-09-19T00:39:55.032Z,20.90
2017-09-19T00:42:24.192Z,19.60
2017-09-19T00:44:51.954Z,18.00
2017-09-19T00:47:19.419Z,19.53
2017-09-19T00:49:46.893Z,18.70
2017-09-19T00:52:14.387Z,20.60
2017-09-19T00:54:41.898Z,20.77
2017-09-19T00:57:09.607Z,21.47
2017-09-19T00:59:37.853Z,20.30
2017-09-19T01:02:05.657Z,21.73
2017-09-19T01:04:33.154Z,19.10
2017-09-19T01:07:01.146Z,18.47
2017-09-19T01:09:28.697Z,20.47
2017-09-19T01:11:56.179Z,19.73
2017-09-19T01:14:25.327Z,17.33
2017-09-19T01:16:52.826Z,17.50
2017-09-19T01:19:20.320Z,16.60
2017-09-19T01:21:47.884Z,18.37
2017-09-19T01:24:15.388Z,18.33
2017-09-19T01:26:42.977Z,16.60
2017-09-19T01:29:11.220Z,17.87
2017-09-19T01:31:38.748Z,17.60
2017-09-19T01:34:06.467Z,17.60
2017-09-19T01:36:34.701Z,16.37
2017-09-19T01:39:02.165Z,16.70
2017-09-19T01:41:29.760Z,18.70
2017-09-19T01:43:58.034Z,18.63
2017-09-19T01:46:26.314Z,21.23
2017-09-19T01:48:54.693Z,19.30
2017-09-19T01:51:23.117Z,18.80
2017-09-19T01:53:51.549Z,19.47
2017-09-19T01:56:19.801Z,20.33
2017-09-19T01:58:49.012Z,19.30
2017-09-19T02:01:16.496Z,18.67
2017-09-19T02:03:44.396Z,19.27
2017-09-19T02:06:11.873Z,18.70
2017-09-19T02:08:39.466Z,17.97
2017-09-19T02:11:07.946Z,20.40
2017-09-19T02:13:36.214Z,18.87
2017-09-19T02:16:04.475Z,20.90
2017-09-19T02:18:32.143Z,17.87
2017-09-19T02:20:59.629Z,19.40
2017-09-19T02:23:28.696Z,18.17
2017-09-19T02:25:56.586Z,18.83
2017-09-19T02:28:24.088Z,20.13
2017-09-19T02:30:51.551Z,19.83
2017-09-19T02:33:19.036Z,20.07
2017-09-19T02:35:46.526Z,20.60
2017-09-19T02:38:14.371Z,20.30
2017-09-19T02:40:41.884Z,17.80
2017-09-19T02:43:09.409Z,19.43
2017-09-19T02:45:37.797Z,19.80
2017-09-19T02:48:05.335Z,19.27
2017-09-19T02:50:33.576Z,18.50
2017-09-19T02:53:01.079Z,21.13
2017-09-19T02:55:28.595Z,19.83
2017-09-19T02:57:56.118Z,19.23
2017-09-19T03:00:23.620Z,19.00
2017-09-19T03:02:51.186Z,18.00
2017-09-19T03:05:19.478Z,17.43
2017-09-19T03:07:47.753Z,17.47
2017-09-19T03:10:16.008Z,13.87
2017-09-19T03:12:43.496Z,15.37
2017-09-19T03:15:11.016Z,16.47
2017-09-19T03:17:38.494Z,14.63
2017-09-19T03:20:06.765Z,14.70
2017-09-19T03:22:34.991Z,14.10
2017-09-19T03:25:02.542Z,16.17
2017-09-19T03:27:31.428Z,14.87
2017-09-19T03:29:58.954Z,14.20
2017-09-19T03:32:27.630Z,15.00
2017-09-19T03:34:55.107Z,14.53
2017-09-19T03:37:22.601Z,14.87
2017-09-19T03:39:50.076Z,18.07
2017-09-19T03:42:17.582Z,17.37
2017-09-19T03:44:45.874Z,15.63
2017-09-19T03:47:13.354Z,15.07
2017-09-19T03:49:40.841Z,13.93
2017-09-19T03:52:08.339Z,16.90
2017-09-19T03:54:35.808Z,14.30
2017-09-19T03:57:03.470Z,14.10
2017-09-19T03:59:30.951Z,12.07
2017-09-19T04:01:58.702Z,13.10
2017-09-19T04:04:26.224Z,12.27
2017-09-19T04:06:55.208Z,14.00
2017-09-19T04:09:23.568Z,14.17
2017-09-19T04:11:51.801Z,13.90
2017-09-19T04:14:19.297Z,14.77
2017-09-19T04:16:46.906Z,16.07
2017-09-19T04:19:14.577Z,13.17
2017-09-19T04:21:42.184Z,12.17
2017-09-19T04:24:10.612Z,13.53
2017-09-19T04:26:38.087Z,12.53
2017-09-19T04:29:05.719Z,12.77
2017-09-19T04:31:33.187Z,15.37
2017-09-19T04:34:00.670Z,13.03
2017-09-19T04:36:28.157Z,14.93
2017-09-19T04:38:55.609Z,16.60
2017-09-19T04:41:23.093Z,16.73
2017-09-19T04:43:51.358Z,15.70
2017-09-19T04:46:19.777Z,18.10
2017-09-19T04:48:47.278Z,18.03
2017-09-19T04:51:15.003Z,15.47
2017-09-19T04:53:42.489Z,18.43
2017-09-19T04:56:09.962Z,18.03
2017-09-19T04:58:37.636Z,18.40
2017-09-19T05:01:05.958Z,18.27
2017-09-19T05:03:33.527Z,19.13
2017-09-19T05:06:01.044Z,18.90
2017-09-19T05:08:29.645Z,18.20
2017-09-19T05:10:57.157Z,23.67
2017-09-19T05:13:24.668Z,25.00
2017-09-19T05:15:52.169Z,26.50
2017-09-19T05:18:19.628Z,33.67
2017-09-19T05:20:48.624Z,19.70
2017-09-19T05:23:16.132Z,21.10
2017-09-19T05:25:43.612Z,24.77
2017-09-19T05:28:11.169Z,24.83
2017-09-19T05:30:38.687Z,23.60
2017-09-19T05:33:06.993Z,22.87
2017-09-19T05:35:34.492Z,27.07
2017-09-19T05:38:02.001Z,25.23
2017-09-19T05:40:29.724Z,24.30
2017-09-19T05:42:57.256Z,30.87
2017-09-19T05:45:24.725Z,31.97
2017-09-19T05:47:52.368Z,42.47
2017-09-19T05:50:19.858Z,33.67
2017-09-19T05:52:47.496Z,26.27
2017-09-19T05:55:14.954Z,28.97
2017-09-19T05:57:42.497Z,26.23
2017-09-19T06:00:09.952Z,28.50
2017-09-19T06:02:37.494Z,28.30
2017-09-19T06:05:05.011Z,32.83
2017-09-19T06:07:32.469Z,25.87
2017-09-19T06:10:00.725Z,27.17
2017-09-19T06:12:28.212Z,30.37
2017-09-19T06:14:56.466Z,30.50
2017-09-19T06:17:24.162Z,29.53
2017-09-19T06:19:51.655Z,31.97
2017-09-19T06:22:19.125Z,31.63
2017-09-19T06:24:46.617Z,31.17
2017-09-19T06:27:14.848Z,30.23
2017-09-19T06:29:42.366Z,31.63
2017-09-19T06:32:09.841Z,30.97
2017-09-19T06:34:37.323Z,33.77
2017-09-19T06:37:05.144Z,33.07
2017-09-19T06:39:33.440Z,31.60
2017-09-19T06:42:01.474Z,31.00
2017-09-19T06:44:29.718Z,33.17
2017-09-19T06:46:57.203Z,31.80
2017-09-19T06:49:25.470Z,31.50
2017-09-19T06:51:52.988Z,32.23
2017-09-19T06:54:20.553Z,33.70
2017-09-19T06:56:48.029Z,31.97
2017-09-19T06:59:15.525Z,35.97
2017-09-19T07:01:43.768Z,33.60
2017-09-19T07:04:11.336Z,33.87
2017-09-19T07:06:39.582Z,33.17
2017-09-19T07:09:07.053Z,31.20
2017-09-19T07:11:34.582Z,33.50
2017-09-19T07:14:02.109Z,34.97
2017-09-19T07:16:30.396Z,37.60
2017-09-19T07:18:58.106Z,33.90
2017-09-19T07:21:25.625Z,36.50
2017-09-19T07:23:53.105Z,36.20
2017-09-19T07:26:20.626Z,34.23
2017-09-19T07:28:48.894Z,35.20
2017-09-19T07:31:17.304Z,36.90
2017-09-19T07:33:44.777Z,35.00
2017-09-19T07:36:12.279Z,34.27
2017-09-19T07:38:39.787Z,34.33
2017-09-19T07:41:07.252Z,34.53
2017-09-19T07:43:34.747Z,37.67
2017-09-19T07:46:02.239Z,35.40
2017-09-19T07:48:29.698Z,34.60
2017-09-19T07:50:57.222Z,35.07
2017-09-19T07:53:25.006Z,33.47
2017-09-19T07:55:53.410Z,34.87
2017-09-19T07:58:22.001Z,32.07
2017-09-19T08:00:49.507Z,32.60
2017-09-19T08:03:16.996Z,33.90
2017-09-19T08:05:44.847Z,34.43
2017-09-19T08:08:13.356Z,33.90
2017-09-19T08:10:40.873Z,33.47
2017-09-19T08:13:09.121Z,29.70
2017-09-19T08:15:36.687Z,32.60
2017-09-19T08:18:04.273Z,30.10
2017-09-19T08:20:32.616Z,29.67
2017-09-19T08:23:00.114Z,33.80
2017-09-19T08:25:27.631Z,31.63
2017-09-19T08:27:55.125Z,34.37
2017-09-19T08:30:23.444Z,34.87
2017-09-19T08:32:51.194Z,34.30
2017-09-19T08:35:18.699Z,37.30
2017-09-19T08:37:46.159Z,31.40
2017-09-19T08:40:13.636Z,32.20
2017-09-19T08:42:41.872Z,31.10
2017-09-19T08:45:09.808Z,30.57
2017-09-19T08:47:37.332Z,29.93
2017-09-19T08:50:04.847Z,30.93
2017-09-19T08:52:32.336Z,32.30
2017-09-19T08:54:59.824Z,32.10
2017-09-19T08:57:29.748Z,32.97
2017-09-19T08:59:57.233Z,31.60
2017-09-19T09:02:24.729Z,31.13
2017-09-19T09:04:52.267Z,35.23
2017-09-19T09:07:19.767Z,33.47
2017-09-19T09:09:48.339Z,33.37
2017-09-19T09:12:15.817Z,34.17
2017-09-19T09:14:43.283Z,33.60
2017-09-19T09:17:10.863Z,32.10
2017-09-19T09:19:38.384Z,34.83
2017-09-19T09:22:06.869Z,33.83
2017-09-19T09:24:35.108Z,37.07
2017-09-19T09:27:02.675Z,36.53
2017-09-19T09:29:30.919Z,32.37
2017-09-19T09:31:58.549Z,33.40
2017-09-19T09:34:27.040Z,36.40
2017-09-19T09:36:54.848Z,34.27
2017-09-19T09:39:22.359Z,33.00
2017-09-19T09:41:49.876Z,31.73
2017-09-19T09:44:17.355Z,33.67
2017-09-19T09:46:45.833Z,35.30
2017-09-19T09:49:14.200Z,32.67
2017-09-19T09:51:41.684Z,35.10
2017-09-19T09:54:09.201Z,39.73
2017-09-19T09:56:36.735Z,38.80
2017-09-19T09:59:04.388Z,41.33
2017-09-19T10:01:31.904Z,39.00
2017-09-19T10:04:00.178Z,42.77
2017-09-19T10:06:28.455Z,41.50
2017-09-19T10:08:56.717Z,39.37
2017-09-19T10:11:24.295Z,39.50
2017-09-19T10:13:52.533Z,39.03
2017-09-19T10:16:20.040Z,40.20
2017-09-19T10:18:47.563Z,38.53
2017-09-19T10:21:15.035Z,39.43
2017-09-19T10:23:42.561Z,36.20
2017-09-19T10:26:10.091Z,37.17
2017-09-19T10:28:37.532Z,35.03
2017-09-19T10:31:05.038Z,35.10
2017-09-19T10:33:32.532Z,33.40
2017-09-19T10:36:00.795Z,33.10
2017-09-19T10:38:29.033Z,30.43
2017-09-19T10:40:56.526Z,31.33
2017-09-19T10:43:23.998Z,31.93
2017-09-19T10:45:52.574Z,30.77
2017-09-19T10:48:21.233Z,28.53
2017-09-19T10:50:48.736Z,27.80
2017-09-19T10:53:16.222Z,26.97
2017-09-19T10:55:43.743Z,26.33
2017-09-19T10:58:11.987Z,28.43
2017-09-19T11:00:40.503Z,26.77
2017-09-19T11:03:08.753Z,28.53
2017-09-19T11:05:36.252Z,27.10
2017-09-19T11:08:03.739Z,27.80
2017-09-19T11:10:31.225Z,27.93
2017-09-19T11:12:59.089Z,30.03
2017-09-19T11:15:26.569Z,32.07
2017-09-19T11:17:54.886Z,33.63
2017-09-19T11:20:22.416Z,36.10
2017-09-19T11:22:50.712Z,36.60
2017-09-19T11:25:19.040Z,32.43
2017-09-19T11:27:46.605Z,37.00
2017-09-19T11:30:14.656Z,32.73
2017-09-19T11:32:42.252Z,32.40
2017-09-19T11:35:10.508Z,30.37
2017-09-19T11:37:38.191Z,30.97
2017-09-19T11:40:06.470Z,29.73
2017-09-19T11:42:34.701Z,32.70
2017-09-19T11:45:02.189Z,31.10
2017-09-19T11:47:30.474Z,31.60
2017-09-19T11:49:58.889Z,33.97
2017-09-19T11:52:26.429Z,32.10
2017-09-19T11:54:53.947Z,31.70
2017-09-19T11:57:21.456Z,29.43
2017-09-19T11:59:49.238Z,31.13
2017-09-19T12:02:16.996Z,29.27
2017-09-19T12:04:45.242Z,26.27
2017-09-19T12:07:13.229Z,28.07
2017-09-19T12:09:40.757Z,29.70
2017-09-19T12:12:09.075Z,27.93
2017-09-19T12:14:36.900Z,25.60
2017-09-19T12:17:05.286Z,28.77
2017-09-19T12:19:32.817Z,29.80
2017-09-19T12:22:00.301Z,30.30
2017-09-19T12:24:27.798Z,33.30
2017-09-19T12:26:55.362Z,35.80
2017-09-19T12:29:22.870Z,31.87
2017-09-19T12:31:51.113Z,30.17
2017-09-19T12:34:18.609Z,29.93
2017-09-19T12:36:46.098Z,29.20
2017-09-19T12:39:13.819Z,27.33
2017-09-19T12:41:42.077Z,25.47
2017-09-19T12:44:09.537Z,24.47
2017-09-19T12:46:37.039Z,25.33
2017-09-19T12:49:04.521Z,26.80
2017-09-19T12:51:32.423Z,27.63
2017-09-19T12:54:00.400Z,25.40
2017-09-19T12:56:28.698Z,25.60
2017-09-19T12:58:56.210Z,26.10
2017-09-19T13:01:23.829Z,23.50
2017-09-19T13:03:51.315Z,21.90
2017-09-19T13:06:18.824Z,22.03
2017-09-19T13:08:47.107Z,20.73
2017-09-19T13:11:15.377Z,21.47
2017-09-19T13:13:43.834Z,20.80
2017-09-19T13:16:11.488Z,17.60
2017-09-19T13:18:39.011Z,17.80
2017-09-19T13:21:06.531Z,18.10
2017-09-19T13:23:34.804Z,16.70
2017-09-19T13:26:03.248Z,16.40
2017-09-19T13:28:30.949Z,17.07
2017-09-19T13:31:11.031Z,16.50
2017-09-19T13:33:46.442Z,17.43
2017-09-19T13:36:14.985Z,17.20
2017-09-19T13:38:42.481Z,18.20
2017-09-19T13:41:10.869Z,17.13
2017-09-19T13:43:39.115Z,16.97
2017-09-19T13:46:06.696Z,19.10
2017-09-19T13:48:35.742Z,15.13
2017-09-19T13:51:03.303Z,16.47
2017-09-19T13:53:30.815Z,18.10
2017-09-19T13:55:59.075Z,17.17
2017-09-19T13:58:26.599Z,17.97
2017-09-19T14:00:54.077Z,16.30
2017-09-19T14:03:21.579Z,15.27
2017-09-19T14:05:49.166Z,18.10
2017-09-19T14:08:17.674Z,17.10
2017-09-19T14:10:45.408Z,15.33
2017-09-19T14:13:12.957Z,16.90
2017-09-19T14:15:40.661Z,14.77
2017-09-19T14:18:08.152Z,17.07
2017-09-19T14:20:36.397Z,16.47
2017-09-19T14:23:03.924Z,17.20
2017-09-19T14:25:31.402Z,16.40
2017-09-19T14:27:58.879Z,16.30
2017-09-19T14:30:26.342Z,16.37
2017-09-19T14:32:54.620Z,16.27
2017-09-19T14:35:24.046Z,14.20
2017-09-19T14:37:51.574Z,14.63
2017-09-19T14:40:19.495Z,14.43
2017-09-19T14:42:47.053Z,16.00
2017-09-19T14:45:14.535Z,16.63
2017-09-19T14:47:42.874Z,18.20
2017-09-19T14:50:10.404Z,18.43
2017-09-19T14:52:38.647Z,17.70
2017-09-19T14:55:08.771Z,16.93
2017-09-19T14:57:36.603Z,16.90
2017-09-19T15:00:04.082Z,15.80
2017-09-19T15:02:31.637Z,15.90
2017-09-19T15:04:59.137Z,17.37
2017-09-19T15:07:28.379Z,14.90
2017-09-19T15:09:55.879Z,18.17
2017-09-19T15:12:23.719Z,18.20
2017-09-19T15:14:51.358Z,18.73
2017-09-19T15:17:18.990Z,17.50
2017-09-19T15:19:46.513Z,18.43
2017-09-19T15:25:30.565Z,15.17
2017-09-19T15:27:58.055Z,17.43
2017-09-19T15:30:26.345Z,18.83
2017-09-19T15:32:54.708Z,18.93
2017-09-19T15:35:22.258Z,19.07
2017-09-19T15:37:49.804Z,19.77
2017-09-19T15:40:17.359Z,20.20
2017-09-19T15:42:45.182Z,18.60
2017-09-19T15:45:21.595Z,18.04
2017-09-19T15:47:49.223Z,17.83
2017-09-19T15:50:18.661Z,17.33
2017-09-19T15:52:46.218Z,16.13
2017-09-19T15:55:13.713Z,16.47
2017-09-19T15:57:42.334Z,18.20
2017-09-19T16:00:09.912Z,18.30
2017-09-19T16:02:37.628Z,17.10
2017-09-19T16:05:05.857Z,16.20
2017-09-19T16:07:33.362Z,17.53
2017-09-19T16:10:00.850Z,17.37
2017-09-19T16:15:46.379Z,17.20
2017-09-19T16:18:14.022Z,19.77
2017-09-19T16:20:41.548Z,18.13
2017-09-19T16:23:09.020Z,16.97
2017-09-19T16:25:36.559Z,18.47
2017-09-19T16:28:04.117Z,17.20
2017-09-19T16:30:31.751Z,17.90
2017-09-19T16:32:59.326Z,19.00
2017-09-19T16:35:27.614Z,17.93
2017-09-19T16:37:55.459Z,18.87
2017-09-19T16:40:23.758Z,19.03
2017-09-19T16:42:52.047Z,19.70
2017-09-19T16:45:20.741Z,19.00
2017-09-19T16:47:48.237Z,19.63
2017-09-19T16:50:15.782Z,21.20
2017-09-19T16:52:43.427Z,21.03
2017-09-19T16:55:11.869Z,20.80
2017-09-19T16:57:40.269Z,21.00
2017-09-19T17:00:08.272Z,20.73
2017-09-19T17:02:36.317Z,21.63
2017-09-19T17:05:03.846Z,20.80
2017-09-19T17:07:31.535Z,19.07
2017-09-19T17:09:59.087Z,21.63
2017-09-19T17:12:26.674Z,22.10
2017-09-19T17:14:54.262Z,22.87
2017-09-19T17:17:21.767Z,22.17
2017-09-19T17:19:50.071Z,21.67
2017-09-19T17:22:17.567Z,24.20
2017-09-19T17:24:45.977Z,23.07
2017-09-19T17:27:13.558Z,22.63
2017-09-19T17:29:41.046Z,26.57
2017-09-19T17:32:08.767Z,23.57
2017-09-19T17:34:36.237Z,23.80
2017-09-19T17:37:03.757Z,20.30
2017-09-19T17:39:32.100Z,23.27
2017-09-19T17:41:59.687Z,27.20
2017-09-19T17:44:28.069Z,24.40
2017-09-19T17:46:56.308Z,38.27
2017-09-19T17:49:23.797Z,29.50
2017-09-19T17:51:52.061Z,31.10
2017-09-19T17:54:20.261Z,28.50
2017-09-19T17:56:47.974Z,27.17
2017-09-19T17:59:15.460Z,26.70
2017-09-19T18:01:42.976Z,32.60
2017-09-19T18:04:10.454Z,30.77
2017-09-19T18:06:37.957Z,32.57
2017-09-19T18:09:05.460Z,35.57
2017-09-19T18:11:33.018Z,34.83
2017-09-19T18:14:00.559Z,39.07
2017-09-19T18:16:28.089Z,34.43
2017-09-19T18:18:55.584Z,33.20
2017-09-19T18:21:24.305Z,43.83
2017-09-19T18:23:51.790Z,38.13
2017-09-19T18:26:20.105Z,41.13
2017-09-19T18:28:49.358Z,40.47
2017-09-19T18:31:17.688Z,40.13
2017-09-19T18:33:45.390Z,39.63
2017-09-19T18:36:13.687Z,36.37
2017-09-19T18:38:41.227Z,46.97
2017-09-19T18:41:10.295Z,40.37
2017-09-19T18:43:37.844Z,42.50
2017-09-19T18:46:05.729Z,43.50
2017-09-19T18:48:33.257Z,39.87
2017-09-19T18:51:00.761Z,45.80
2017-09-19T18:53:29.033Z,42.33
2017-09-19T18:55:57.306Z,41.50
2017-09-19T18:58:25.072Z,38.70
2017-09-19T19:00:53.975Z,49.57
2017-09-19T19:03:22.265Z,45.33
2017-09-19T19:05:50.549Z,46.70
2017-09-19T19:08:18.035Z,41.80
2017-09-19T19:10:45.777Z,41.43
2017-09-19T19:13:13.794Z,44.60
2017-09-19T19:15:41.308Z,41.40
2017-09-19T19:18:08.841Z,43.70
2017-09-19T19:20:37.119Z,42.43
2017-09-19T19:23:05.395Z,41.43
2017-09-19T19:25:33.020Z,39.40
2017-09-19T19:28:00.532Z,51.60
2017-09-19T19:30:28.056Z,43.93
2017-09-19T19:32:56.397Z,40.53
2017-09-19T19:35:23.932Z,39.60
2017-09-19T19:37:51.446Z,38.77
2017-09-19T19:40:19.001Z,37.63
2017-09-19T19:42:46.548Z,39.80
2017-09-19T19:45:14.226Z,42.37
2017-09-19T19:47:42.853Z,42.23
2017-09-19T19:50:10.995Z,39.10
2017-09-19T19:52:39.499Z,43.70
2017-09-19T19:55:07.078Z,42.10
2017-09-19T19:57:34.635Z,43.50
2017-09-19T20:00:02.169Z,36.83
2017-09-19T20:02:29.726Z,42.57
2017-09-19T20:04:57.778Z,44.20
2017-09-19T20:07:46.290Z,38.20
2017-09-19T20:10:13.866Z,44.20
2017-09-19T20:12:41.420Z,38.17
2017-09-19T20:15:08.885Z,42.40
2017-09-19T20:17:36.351Z,47.30
2017-09-19T20:20:04.063Z,42.40
2017-09-19T20:22:31.781Z,42.07
2017-09-19T20:24:59.262Z,42.07
2017-09-19T20:27:28.335Z,42.00
2017-09-19T20:29:55.845Z,39.53
2017-09-19T20:32:23.363Z,39.80
2017-09-19T20:34:51.624Z,41.83
2017-09-19T20:37:19.130Z,41.80
2017-09-19T20:39:46.678Z,44.80
2017-09-19T20:42:14.405Z,41.67
2017-09-19T20:44:41.963Z,46.30
2017-09-19T20:47:09.526Z,45.63
2017-09-19T20:49:37.184Z,47.10
2017-09-19T20:52:04.703Z,44.97
2017-09-19T20:54:32.231Z,48.00
2017-09-19T20:56:59.769Z,46.73
2017-09-19T20:59:28.014Z,45.13
2017-09-19T21:01:55.649Z,47.00
2017-09-19T21:04:28.754Z,47.60
2017-09-19T21:07:01.939Z,45.00
2017-09-19T21:09:35.363Z,46.20
2017-09-19T21:12:08.659Z,46.00
2017-09-19T21:14:41.970Z,45.27
2017-09-19T21:17:15.062Z,46.67
2017-09-19T21:19:42.828Z,47.43
2017-09-19T21:22:11.058Z,48.70
2017-09-19T21:24:38.607Z,45.60
2017-09-19T21:27:06.088Z,48.73
2017-09-19T21:29:33.600Z,43.93
2017-09-19T21:32:01.087Z,45.93
2017-09-19T21:34:48.987Z,49.17
2017-09-19T21:37:16.887Z,44.80
2017-09-19T21:39:44.799Z,47.00
2017-09-19T21:42:12.313Z,48.67
2017-09-19T21:44:39.785Z,47.10
2017-09-19T21:47:07.406Z,47.00
2017-09-19T21:49:35.160Z,46.97
2017-09-19T21:52:03.405Z,47.67
2017-09-19T21:54:30.882Z,45.40
2017-09-19T21:56:59.175Z,42.33
2017-09-19T21:59:26.692Z,45.00
2017-09-19T22:01:54.328Z,44.80
2017-09-19T22:04:21.794Z,43.10
2017-09-19T22:06:49.273Z,40.00
2017-09-19T22:09:16.761Z,44.83
2017-09-19T22:11:44.338Z,45.03
2017-09-19T22:14:12.053Z,41.00
2017-09-19T22:16:40.054Z,41.03
2017-09-19T22:19:07.623Z,42.80
2017-09-19T22:21:35.735Z,41.80
2017-09-19T22:24:04.121Z,42.80
2017-09-19T22:26:31.814Z,42.77
2017-09-19T22:29:00.058Z,42.50
2017-09-19T22:31:27.555Z,39.07
2017-09-19T22:33:55.825Z,41.73
2017-09-19T22:36:23.345Z,39.73
2017-09-19T22:38:51.018Z,41.77
2017-09-19T22:41:18.473Z,44.13
2017-09-19T22:43:45.963Z,40.47
2017-09-19T22:46:14.197Z,41.77
2017-09-19T22:48:41.669Z,40.70
2017-09-19T22:51:09.180Z,38.83
2017-09-19T22:53:36.757Z,38.63
2017-09-19T22:56:04.223Z,39.27
2017-09-19T22:58:31.727Z,40.00
2017-09-19T23:00:59.957Z,38.87
2017-09-19T23:03:27.794Z,39.23
2017-09-19T23:05:55.273Z,36.30
2017-09-19T23:08:22.768Z,41.07
2017-09-19T23:10:51.043Z,38.70
2017-09-19T23:13:19.292Z,36.73
2017-09-19T23:15:46.984Z,36.93
2017-09-19T23:18:15.239Z,36.23
2017-09-19T23:20:44.224Z,40.23
2017-09-19T23:23:11.767Z,37.10
2017-09-19T23:25:39.443Z,35.80
2017-09-19T23:28:07.376Z,39.23
2017-09-19T23:30:34.850Z,36.70
2017-09-19T23:33:02.341Z,34.73
2017-09-19T23:35:29.826Z,35.97
2017-09-19T23:37:58.088Z,37.47
2017-09-19T23:40:26.558Z,34.77
2017-09-19T23:42:54.812Z,35.97
2017-09-19T23:45:22.389Z,35.77
2017-09-19T23:47:49.988Z,36.20
2017-09-19T23:50:18.603Z,36.20
2017-09-19T23:52:46.405Z,34.67
2017-09-19T23:55:14.646Z,36.30
2017-09-19T23:57:42.117Z,37.43
